Time;durP1;ratioP1;P1;durP2;ratioP2;P2;SDS_P1;SDS_P2;PMS_P1;PMS_P2;Temp;Humidity;BMP_temperature;BMP_pressure;BME280_temperature;BME280_humidity;BME280_pressure;Samples;Min_cycle;Max_cycle;Signal;HPM_P1;HPM_P2
2021/05/29 00:01:33;;;;;;;;;19.00;16.25;;;;;;;;5002986;28;10071;-88
2021/05/29 00:04:00;;;;;;;;;13.00;13.00;;;;;;;;4987565;28;10145;-86
2021/05/29 00:06:27;;;;;;;;;16.75;15.75;;;;;;;;4988014;28;10187;-79
2021/05/29 00:08:55;;;;;;;;;13.00;13.00;;;;;;;;5003133;28;10230;-84
2021/05/29 00:11:22;;;;;;;;;15.50;15.50;;;;;;;;5004765;28;10154;-83
2021/05/29 00:13:49;;;;;;;;;18.50;18.50;;;;;;;;5002600;28;10132;-84
2021/05/29 00:16:16;;;;;;;;;16.75;16.75;;;;;;;;5014281;28;10148;-90
2021/05/29 00:18:43;;;;;;;;;18.25;18.25;;;;;;;;5003727;28;11046;-90
2021/05/29 00:21:09;;;;;;;;;17.75;16.00;;;;;;;;5004824;28;10294;-88
2021/05/29 00:23:37;;;;;;;;;20.00;20.00;;;;;;;;5004790;28;10225;-89
2021/05/29 00:26:05;;;;;;;;;23.75;18.50;;;;;;;;4987436;28;10186;-84
2021/05/29 00:28:32;;;;;;;;;19.50;17.25;;;;;;;;5004131;28;10171;-85
2021/05/29 00:30:59;;;;;;;;;19.00;17.00;;;;;;;;4986131;28;10839;-85
2021/05/29 00:33:25;;;;;;;;;21.50;20.00;;;;;;;;5006298;28;10202;-85
2021/05/29 00:35:52;;;;;;;;;20.75;18.25;;;;;;;;5003096;28;10235;-86
2021/05/29 00:38:19;;;;;;;;;19.50;16.75;;;;;;;;5005020;28;10275;-89
2021/05/29 00:40:46;;;;;;;;;15.50;15.50;;;;;;;;5003849;28;9966;-89
2021/05/29 00:43:14;;;;;;;;;19.00;18.25;;;;;;;;5005160;28;10025;-87
2021/05/29 00:45:41;;;;;;;;;18.00;16.50;;;;;;;;4987322;28;10165;-86
2021/05/29 00:48:08;;;;;;;;;15.75;15.75;;;;;;;;5003175;28;10077;-90
2021/05/29 00:50:47;;;;;;;;;19.50;17.75;;;;;;;;5003269;28;9961;-85
2021/05/29 00:53:15;;;;;;;;;17.75;16.25;;;;;;;;5003026;28;9877;-88
2021/05/29 00:55:41;;;;;;;;;19.75;18.75;;;;;;;;5004557;28;9886;-84
2021/05/29 00:58:08;;;;;;;;;15.00;14.50;;;;;;;;5003354;28;9996;-86
2021/05/29 01:00:37;;;;;;;;;17.50;17.50;;;;;;;;5003862;28;9857;-84
2021/05/29 01:03:04;;;;;;;;;21.00;20.50;;;;;;;;5010425;28;9911;-87
2021/05/29 01:05:31;;;;;;;;;17.50;14.50;;;;;;;;5010898;28;10018;-87
2021/05/29 01:07:58;;;;;;;;;17.75;17.75;;;;;;;;5008749;28;9814;-86
2021/05/29 01:10:26;;;;;;;;;20.75;18.25;;;;;;;;5001056;28;9875;-86
2021/05/29 01:12:54;;;;;;;;;17.50;16.75;;;;;;;;5007537;28;10271;-87
2021/05/29 01:15:22;;;;;;;;;16.50;15.25;;;;;;;;5010713;28;9901;-83
2021/05/29 01:17:50;;;;;;;;;12.00;9.50;;;;;;;;5007385;28;9791;-85
2021/05/29 01:20:18;;;;;;;;;19.50;16.00;;;;;;;;5006246;28;9985;-88
2021/05/29 01:22:48;;;;;;;;;20.25;15.50;;;;;;;;5007120;28;9919;-85
2021/05/29 01:25:19;;;;;;;;;11.75;11.75;;;;;;;;5007755;28;10483;-87
2021/05/29 01:27:47;;;;;;;;;18.75;16.25;;;;;;;;5006139;28;10044;-85
2021/05/29 01:30:15;;;;;;;;;15.00;15.00;;;;;;;;5006721;28;9959;-87
2021/05/29 01:32:42;;;;;;;;;19.25;16.50;;;;;;;;5006140;28;10013;-86
2021/05/29 01:35:11;;;;;;;;;19.50;17.25;;;;;;;;5008961;28;10123;-81
2021/05/29 01:37:39;;;;;;;;;18.25;14.00;;;;;;;;5010958;28;10158;-85
2021/05/29 01:40:09;;;;;;;;;21.50;18.50;;;;;;;;5006456;28;10530;-87
2021/05/29 01:42:38;;;;;;;;;21.25;20.00;;;;;;;;5006718;28;10349;-86
2021/05/29 01:45:06;;;;;;;;;17.75;17.75;;;;;;;;5005723;28;10210;-75
2021/05/29 01:47:35;;;;;;;;;22.00;18.25;;;;;;;;5004142;28;10305;-81
2021/05/29 01:50:03;;;;;;;;;19.75;19.75;;;;;;;;5005762;28;10314;-89
2021/05/29 01:52:50;;;;;;;;;22.50;16.75;;;;;;;;5005980;28;10392;-87
2021/05/29 01:55:20;;;;;;;;;18.25;15.75;;;;;;;;5006422;28;10506;-88
2021/05/29 01:57:47;;;;;;;;;20.75;20.75;;;;;;;;5005750;28;10453;-89
2021/05/29 02:00:15;;;;;;;;;15.50;15.25;;;;;;;;5006425;28;10527;-89
2021/05/29 02:02:42;;;;;;;;;15.00;15.00;;;;;;;;5005309;28;10367;-90
2021/05/29 02:05:12;;;;;;;;;21.75;19.00;;;;;;;;5006328;28;10604;-83
2021/05/29 02:07:38;;;;;;;;;22.25;18.75;;;;;;;;5004323;28;10667;-91
2021/05/29 02:10:07;;;;;;;;;23.25;20.75;;;;;;;;5007012;28;10540;-91
2021/05/29 02:12:43;;;;;;;;;15.75;15.50;;;;;;;;5006325;28;10592;-90
2021/05/29 02:15:12;;;;;;;;;16.25;15.75;;;;;;;;5008168;28;10515;-91
2021/05/29 02:17:40;;;;;;;;;21.50;20.00;;;;;;;;4997732;28;10657;-88
2021/05/29 02:20:08;;;;;;;;;18.00;18.00;;;;;;;;5005937;28;10519;-90
2021/05/29 02:22:35;;;;;;;;;23.75;19.75;;;;;;;;5006441;28;10697;-87
2021/05/29 02:25:03;;;;;;;;;21.25;20.00;;;;;;;;5001508;28;10783;-89
2021/05/29 02:27:30;;;;;;;;;16.50;16.50;;;;;;;;5010425;28;10681;-88
2021/05/29 02:29:58;;;;;;;;;19.00;19.00;;;;;;;;5005911;28;10838;-88
2021/05/29 02:32:25;;;;;;;;;23.00;20.75;;;;;;;;5004787;28;10728;-89
2021/05/29 02:34:51;;;;;;;;;15.75;14.50;;;;;;;;5005816;28;10667;-88
2021/05/29 02:37:18;;;;;;;;;19.00;17.25;;;;;;;;5004023;28;10662;-88
2021/05/29 02:39:45;;;;;;;;;23.00;20.50;;;;;;;;5006326;28;11210;-88
2021/05/29 02:42:13;;;;;;;;;25.00;23.25;;;;;;;;5004649;28;10764;-83
2021/05/29 02:44:40;;;;;;;;;26.25;25.00;;;;;;;;4990240;28;10712;-87
2021/05/29 02:47:08;;;;;;;;;21.00;21.00;;;;;;;;5005824;28;10862;-85
2021/05/29 02:49:35;;;;;;;;;16.75;16.75;;;;;;;;5003726;28;11548;-89
2021/05/29 02:52:02;;;;;;;;;26.50;22.50;;;;;;;;5006405;28;11593;-88
2021/05/29 02:54:29;;;;;;;;;24.50;20.75;;;;;;;;5004604;28;10823;-87
2021/05/29 02:56:56;;;;;;;;;13.50;13.25;;;;;;;;5012298;28;10850;-87
2021/05/29 02:59:23;;;;;;;;;25.25;19.00;;;;;;;;5005105;28;11483;-87
2021/05/29 03:01:50;;;;;;;;;21.25;20.00;;;;;;;;5010237;28;10698;-88
2021/05/29 03:04:18;;;;;;;;;24.50;23.75;;;;;;;;5005561;28;10698;-90
2021/05/29 03:06:45;;;;;;;;;20.25;20.25;;;;;;;;5004092;28;10669;-86
2021/05/29 03:09:11;;;;;;;;;26.00;25.75;;;;;;;;5005120;28;10774;-87
2021/05/29 03:11:42;;;;;;;;;22.75;19.25;;;;;;;;5004589;28;10776;-89
2021/05/29 03:14:09;;;;;;;;;22.25;22.25;;;;;;;;5006066;28;10811;-88
2021/05/29 03:16:36;;;;;;;;;20.75;14.25;;;;;;;;5002715;28;10891;-87
2021/05/29 03:19:04;;;;;;;;;27.75;25.75;;;;;;;;5006308;28;10869;-82
2021/05/29 03:21:32;;;;;;;;;33.00;29.50;;;;;;;;5006611;28;10851;-86
2021/05/29 03:23:59;;;;;;;;;24.00;20.25;;;;;;;;5003950;28;10896;-87
2021/05/29 03:26:26;;;;;;;;;20.00;19.50;;;;;;;;5004286;28;10878;-86
2021/05/29 03:28:53;;;;;;;;;24.00;23.50;;;;;;;;5005015;28;10895;-88
2021/05/29 03:31:21;;;;;;;;;25.50;25.50;;;;;;;;5005264;28;10892;-91
2021/05/29 03:33:47;;;;;;;;;23.25;20.25;;;;;;;;4986577;28;10794;-91
2021/05/29 03:36:14;;;;;;;;;19.50;19.50;;;;;;;;5004532;28;10900;-86
2021/05/29 03:38:42;;;;;;;;;20.25;20.25;;;;;;;;4995340;28;11081;-87
2021/05/29 03:41:09;;;;;;;;;23.25;23.25;;;;;;;;5005156;28;10852;-87
2021/05/29 03:43:37;;;;;;;;;29.50;24.50;;;;;;;;5005605;28;10896;-89
2021/05/29 03:46:04;;;;;;;;;24.00;21.50;;;;;;;;4982077;28;10994;-89
2021/05/29 03:48:32;;;;;;;;;9.75;9.75;;;;;;;;5005895;28;10992;-88
2021/05/29 03:50:59;;;;;;;;;18.25;18.25;;;;;;;;4986446;28;10772;-87
2021/05/29 03:53:27;;;;;;;;;17.00;17.00;;;;;;;;5004760;28;11452;-85
2021/05/29 03:55:55;;;;;;;;;24.75;23.25;;;;;;;;5003744;28;10843;-87
2021/05/29 03:58:23;;;;;;;;;22.25;22.25;;;;;;;;5004411;28;10876;-84
2021/05/29 04:00:50;;;;;;;;;25.25;24.75;;;;;;;;5003000;28;10786;-87
2021/05/29 04:03:17;;;;;;;;;30.50;25.00;;;;;;;;5003682;28;10902;-85
2021/05/29 04:05:44;;;;;;;;;21.75;21.50;;;;;;;;5004688;28;10806;-86
2021/05/29 04:08:10;;;;;;;;;17.50;17.50;;;;;;;;5003769;28;10858;-86
2021/05/29 04:10:37;;;;;;;;;20.25;20.25;;;;;;;;5005738;28;10860;-86
2021/05/29 04:13:05;;;;;;;;;24.25;22.00;;;;;;;;5003744;28;10880;-87
2021/05/29 04:15:33;;;;;;;;;17.75;15.75;;;;;;;;5003909;28;11140;-85
2021/05/29 04:17:59;;;;;;;;;24.25;24.25;;;;;;;;5003577;28;10854;-86
2021/05/29 04:20:27;;;;;;;;;20.25;19.75;;;;;;;;5003683;28;10964;-82
2021/05/29 04:22:54;;;;;;;;;23.75;23.75;;;;;;;;5004259;28;10786;-85
2021/05/29 04:25:24;;;;;;;;;27.75;22.50;;;;;;;;5003350;28;11624;-84
2021/05/29 04:27:52;;;;;;;;;25.50;22.50;;;;;;;;4988962;28;10826;-84
2021/05/29 04:30:22;;;;;;;;;25.75;22.25;;;;;;;;5003175;28;10940;-84
2021/05/29 04:32:49;;;;;;;;;24.00;24.00;;;;;;;;5004259;28;10973;-83
2021/05/29 04:35:17;;;;;;;;;28.50;22.25;;;;;;;;5003895;28;11055;-86
2021/05/29 04:37:45;;;;;;;;;29.50;26.50;;;;;;;;5007726;28;10701;-87
2021/05/29 04:40:14;;;;;;;;;29.50;23.50;;;;;;;;5008821;28;10839;-86
2021/05/29 04:42:41;;;;;;;;;17.75;17.75;;;;;;;;5007872;28;10894;-85
2021/05/29 04:45:10;;;;;;;;;14.50;14.50;;;;;;;;5007672;28;10835;-84
2021/05/29 04:47:39;;;;;;;;;28.50;23.50;;;;;;;;4989971;28;10768;-83
2021/05/29 04:50:07;;;;;;;;;19.50;18.25;;;;;;;;5008243;28;10796;-83
2021/05/29 04:52:34;;;;;;;;;22.50;20.00;;;;;;;;5007402;28;10589;-87
2021/05/29 04:55:02;;;;;;;;;27.50;21.50;;;;;;;;4998783;28;10716;-85
2021/05/29 04:57:29;;;;;;;;;21.50;20.50;;;;;;;;4996168;28;10696;-83
2021/05/29 04:59:56;;;;;;;;;25.25;23.75;;;;;;;;5006790;28;10703;-87
2021/05/29 05:02:23;;;;;;;;;24.50;23.00;;;;;;;;5013047;28;10492;-87
2021/05/29 05:04:51;;;;;;;;;27.25;23.50;;;;;;;;5005325;28;10550;-85
2021/05/29 05:07:18;;;;;;;;;28.50;25.00;;;;;;;;5008638;28;10644;-82
2021/05/29 05:09:45;;;;;;;;;28.00;25.25;;;;;;;;5006248;28;10498;-83
2021/05/29 05:12:12;;;;;;;;;29.50;28.00;;;;;;;;5008651;28;10532;-86
2021/05/29 05:14:39;;;;;;;;;27.75;26.25;;;;;;;;5009400;28;10701;-93
2021/05/29 05:17:06;;;;;;;;;28.00;24.50;;;;;;;;5009437;28;10529;-84
2021/05/29 05:19:33;;;;;;;;;31.75;28.75;;;;;;;;5009265;28;12836;-77
2021/05/29 05:22:01;;;;;;;;;33.50;31.50;;;;;;;;5004688;28;10745;-78
2021/05/29 05:24:28;;;;;;;;;37.25;31.50;;;;;;;;5005176;28;10529;-74
2021/05/29 05:26:55;;;;;;;;;26.00;23.00;;;;;;;;5006535;28;10419;-75
2021/05/29 05:29:22;;;;;;;;;25.25;23.75;;;;;;;;5007034;28;10466;-73
2021/05/29 05:31:48;;;;;;;;;22.50;22.50;;;;;;;;5004890;28;10337;-74
2021/05/29 05:34:15;;;;;;;;;24.00;21.25;;;;;;;;4988224;28;10317;-75
2021/05/29 05:36:43;;;;;;;;;25.50;25.50;;;;;;;;5003380;28;10120;-76
2021/05/29 05:39:14;;;;;;;;;29.00;25.25;;;;;;;;5004887;28;10240;-76
2021/05/29 05:41:41;;;;;;;;;27.75;24.25;;;;;;;;5005858;28;10263;-76
2021/05/29 05:44:09;;;;;;;;;20.75;17.75;;;;;;;;5006143;28;10273;-83
2021/05/29 05:46:37;;;;;;;;;25.25;23.50;;;;;;;;5012333;28;10304;-87
2021/05/29 05:49:04;;;;;;;;;25.00;24.00;;;;;;;;5007243;28;10897;-85
2021/05/29 05:51:32;;;;;;;;;29.50;27.25;;;;;;;;5006167;28;10144;-88
2021/05/29 05:53:59;;;;;;;;;27.50;27.50;;;;;;;;5013035;28;10129;-87
2021/05/29 05:56:27;;;;;;;;;29.75;28.50;;;;;;;;4974763;28;10218;-88
2021/05/29 05:58:56;;;;;;;;;30.75;26.25;;;;;;;;5006320;28;10290;-86
2021/05/29 06:01:23;;;;;;;;;26.75;24.75;;;;;;;;5005683;28;10054;-88
2021/05/29 06:03:50;;;;;;;;;28.50;25.75;;;;;;;;5007526;28;10096;-88
2021/05/29 06:06:17;;;;;;;;;18.75;18.25;;;;;;;;5013883;28;9899;-84
2021/05/29 06:08:44;;;;;;;;;21.50;20.50;;;;;;;;5007623;28;9667;-86
2021/05/29 06:11:11;;;;;;;;;26.50;23.25;;;;;;;;5001554;28;9750;-89
2021/05/29 06:19:26;;;;;;;;;27.50;27.25;;;;;;;;4981790;28;9586;-85
2021/05/29 06:21:55;;;;;;;;;18.00;18.00;;;;;;;;5006152;28;9570;-83
2021/05/29 06:24:24;;;;;;;;;23.00;20.67;;;;;;;;5005222;28;9486;-80
2021/05/29 06:26:52;;;;;;;;;24.00;22.00;;;;;;;;4996213;28;9437;-85
2021/05/29 06:29:20;;;;;;;;;28.00;24.00;;;;;;;;5001517;28;9478;-82
2021/05/29 06:31:47;;;;;;;;;19.67;18.67;;;;;;;;5003313;28;9426;-75
2021/05/29 06:34:15;;;;;;;;;20.67;18.00;;;;;;;;5006228;28;9201;-77
2021/05/29 06:36:42;;;;;;;;;20.00;20.00;;;;;;;;5004260;28;9111;-77
2021/05/29 06:39:09;;;;;;;;;21.00;20.50;;;;;;;;5003054;28;9149;-79
2021/05/29 06:41:39;;;;;;;;;21.50;21.50;;;;;;;;5004604;28;8986;-78
2021/05/29 06:44:06;;;;;;;;;22.50;20.25;;;;;;;;4988242;28;8877;-77
2021/05/29 06:46:34;;;;;;;;;19.25;19.25;;;;;;;;5004209;28;9048;-77
2021/05/29 06:49:03;;;;;;;;;15.25;14.50;;;;;;;;5003802;28;9025;-77
2021/05/29 06:51:35;;;;;;;;;18.75;16.25;;;;;;;;5004391;28;8883;-78
2021/05/29 06:54:06;;;;;;;;;20.50;18.50;;;;;;;;5003933;28;8936;-77
2021/05/29 06:59:17;;;;;;;;;16.00;14.00;;;;;;;;5011824;28;9624;-75
2021/05/29 07:01:45;;;;;;;;;18.75;18.00;;;;;;;;5001783;28;8811;-77
2021/05/29 07:04:12;;;;;;;;;19.00;17.25;;;;;;;;5004760;28;8878;-77
2021/05/29 07:06:39;;;;;;;;;21.50;21.50;;;;;;;;5002534;28;8862;-77
2021/05/29 07:09:06;;;;;;;;;21.50;21.50;;;;;;;;4991226;28;8912;-77
2021/05/29 07:11:37;;;;;;;;;20.75;20.75;;;;;;;;5007653;28;8912;-77
2021/05/29 07:14:05;;;;;;;;;20.75;19.25;;;;;;;;4997754;28;8851;-75
2021/05/29 07:16:35;;;;;;;;;26.25;23.25;;;;;;;;5004013;28;8897;-75
2021/05/29 07:19:03;;;;;;;;;22.50;22.50;;;;;;;;5003175;28;10120;-76
2021/05/29 07:21:30;;;;;;;;;23.25;22.25;;;;;;;;5004161;28;9716;-74
2021/05/29 07:23:57;;;;;;;;;17.25;16.50;;;;;;;;5002013;28;8886;-74
2021/05/29 07:26:24;;;;;;;;;25.75;22.50;;;;;;;;5003646;28;8886;-76
2021/05/29 07:28:52;;;;;;;;;18.25;18.25;;;;;;;;5014923;28;8861;-77
2021/05/29 07:31:19;;;;;;;;;19.00;18.25;;;;;;;;5003988;28;8838;-77
2021/05/29 07:33:48;;;;;;;;;16.50;16.25;;;;;;;;5011164;28;8965;-77
2021/05/29 07:36:17;;;;;;;;;15.75;15.00;;;;;;;;5003266;28;8902;-76
2021/05/29 07:38:44;;;;;;;;;16.00;16.00;;;;;;;;5004505;28;8900;-76
2021/05/29 07:41:11;;;;;;;;;19.75;18.00;;;;;;;;5003220;28;8900;-77
2021/05/29 07:43:38;;;;;;;;;16.50;16.25;;;;;;;;5004345;28;8993;-76
2021/05/29 07:46:06;;;;;;;;;20.25;18.25;;;;;;;;5003095;28;9025;-76
2021/05/29 07:48:34;;;;;;;;;14.00;14.00;;;;;;;;5004136;28;8882;-76
2021/05/29 07:51:03;;;;;;;;;14.00;14.00;;;;;;;;5004004;28;8948;-76
2021/05/29 07:53:33;;;;;;;;;19.25;19.00;;;;;;;;5003474;28;8866;-77
2021/05/29 07:56:01;;;;;;;;;19.50;18.00;;;;;;;;5003824;28;8874;-76
2021/05/29 07:58:28;;;;;;;;;12.50;12.50;;;;;;;;5002613;28;8878;-77
2021/05/29 08:00:56;;;;;;;;;14.25;11.25;;;;;;;;5003770;28;9648;-76
2021/05/29 08:03:24;;;;;;;;;10.25;10.25;;;;;;;;5003579;28;9082;-77
2021/05/29 08:05:52;;;;;;;;;10.50;10.50;;;;;;;;5003660;28;8875;-76
2021/05/29 08:08:20;;;;;;;;;13.50;10.00;;;;;;;;5003462;28;8895;-77
2021/05/29 08:10:49;;;;;;;;;8.25;8.25;;;;;;;;5006920;28;8871;-77
2021/05/29 08:13:15;;;;;;;;;11.00;11.00;;;;;;;;5004333;28;8874;-76
2021/05/29 08:15:43;;;;;;;;;10.75;10.25;;;;;;;;5002157;28;9013;-76
2021/05/29 08:18:10;;;;;;;;;7.00;6.25;;;;;;;;5004295;28;8896;-77
2021/05/29 08:20:37;;;;;;;;;11.50;10.00;;;;;;;;5002389;28;8895;-77
2021/05/29 08:23:05;;;;;;;;;9.25;9.25;;;;;;;;5003964;28;9001;-77
2021/05/29 08:25:33;;;;;;;;;7.00;7.00;;;;;;;;5003182;28;8872;-77
2021/05/29 08:28:01;;;;;;;;;7.00;7.00;;;;;;;;5009228;28;8886;-75
2021/05/29 08:30:28;;;;;;;;;5.50;5.50;;;;;;;;5003297;28;8901;-77
2021/05/29 08:32:55;;;;;;;;;8.75;8.75;;;;;;;;5003087;28;8870;-78
2021/05/29 08:35:22;;;;;;;;;8.00;6.00;;;;;;;;5003626;28;8912;-77
2021/05/29 08:37:49;;;;;;;;;6.75;6.00;;;;;;;;5002609;28;8906;-76
2021/05/29 08:40:18;;;;;;;;;6.00;6.00;;;;;;;;5003871;28;8921;-78
2021/05/29 08:42:47;;;;;;;;;5.80;5.80;;;;;;;;5003691;28;9028;-80
2021/05/29 08:45:16;;;;;;;;;4.80;4.80;;;;;;;;5002721;28;9734;-77
2021/05/29 08:47:45;;;;;;;;;4.80;3.00;;;;;;;;5003668;28;8887;-79
2021/05/29 08:50:12;;;;;;;;;5.00;5.00;;;;;;;;5002960;28;8878;-77
2021/05/29 08:52:40;;;;;;;;;5.80;5.80;;;;;;;;5004003;28;8870;-77
2021/05/29 08:55:09;;;;;;;;;6.20;6.20;;;;;;;;5002433;28;8862;-78
2021/05/29 08:57:36;;;;;;;;;6.80;6.80;;;;;;;;4987939;28;8855;-74
2021/05/29 09:00:05;;;;;;;;;7.00;7.00;;;;;;;;5002130;28;8936;-73
2021/05/29 09:02:33;;;;;;;;;6.40;6.40;;;;;;;;5000683;28;8831;-79
2021/05/29 09:05:07;;;;;;;;;6.80;6.80;;;;;;;;5002215;28;8876;-78
2021/05/29 09:07:34;;;;;;;;;4.60;4.60;;;;;;;;5002961;28;8913;-80
2021/05/29 09:10:21;;;;;;;;;6.20;5.60;;;;;;;;5001936;28;8951;-77
2021/05/29 09:13:09;;;;;;;;;7.00;7.00;;;;;;;;5001415;28;8882;-79
2021/05/29 09:15:45;;;;;;;;;6.00;6.00;;;;;;;;5002420;28;8890;-82
2021/05/29 09:18:33;;;;;;;;;1.40;1.40;;;;;;;;5002644;28;8893;-86
2021/05/29 09:21:20;;;;;;;;;3.80;3.80;;;;;;;;5003257;28;8883;-88
2021/05/29 09:23:50;;;;;;;;;3.00;3.00;;;;;;;;5003237;28;8878;-78
2021/05/29 09:26:20;;;;;;;;;3.60;3.60;;;;;;;;5006183;28;8904;-81
2021/05/29 09:28:48;;;;;;;;;6.60;6.60;;;;;;;;5010028;28;8952;-80
2021/05/29 09:31:15;;;;;;;;;4.75;3.00;;;;;;;;5005921;28;8780;-76
2021/05/29 09:33:43;;;;;;;;;2.00;2.00;;;;;;;;5005313;28;8965;-78
2021/05/29 09:36:12;;;;;;;;;3.00;3.00;;;;;;;;5008455;28;8910;-78
2021/05/29 09:38:40;;;;;;;;;3.00;3.00;;;;;;;;5004479;28;8879;-79
2021/05/29 09:41:19;;;;;;;;;4.40;3.20;;;;;;;;5007917;28;9049;-74
2021/05/29 09:43:54;;;;;;;;;3.40;3.40;;;;;;;;5005589;28;8905;-72
2021/05/29 09:46:22;;;;;;;;;4.80;4.80;;;;;;;;5005172;28;8956;-73
2021/05/29 09:48:56;;;;;;;;;10.00;8.40;;;;;;;;4988868;28;8867;-74
2021/05/29 09:51:23;;;;;;;;;5.80;5.80;;;;;;;;5009723;28;8890;-79
2021/05/29 09:53:51;;;;;;;;;5.40;5.40;;;;;;;;5008273;28;8871;-77
2021/05/29 09:56:27;;;;;;;;;5.20;4.40;;;;;;;;5004293;28;8906;-75
2021/05/29 09:58:58;;;;;;;;;3.00;3.00;;;;;;;;5004964;28;9032;-75
2021/05/29 10:01:50;;;;;;;;;7.60;7.60;;;;;;;;5014143;28;8811;-74
2021/05/29 10:04:36;;;;;;;;;4.80;4.00;;;;;;;;4989979;28;8984;-75
2021/05/29 10:07:04;;;;;;;;;4.00;2.40;;;;;;;;5004256;28;8847;-74
2021/05/29 10:09:32;;;;;;;;;4.40;4.40;;;;;;;;5006588;28;8887;-76
2021/05/29 10:12:01;;;;;;;;;3.80;3.60;;;;;;;;5004667;28;8847;-75
2021/05/29 10:14:30;;;;;;;;;4.00;4.00;;;;;;;;5004980;28;8862;-74
2021/05/29 10:16:58;;;;;;;;;4.00;4.00;;;;;;;;4998485;28;8910;-75
2021/05/29 10:19:27;;;;;;;;;2.80;2.80;;;;;;;;5005697;28;8870;-80
2021/05/29 10:21:55;;;;;;;;;4.20;4.20;;;;;;;;5004589;28;9733;-77
2021/05/29 10:24:24;;;;;;;;;3.60;1.60;;;;;;;;5005425;28;8922;-77
2021/05/29 10:26:54;;;;;;;;;2.00;2.00;;;;;;;;5004800;28;8870;-75
2021/05/29 10:29:25;;;;;;;;;3.00;3.00;;;;;;;;5002906;28;8862;-76
2021/05/29 10:31:58;;;;;;;;;2.80;2.80;;;;;;;;5004991;28;8888;-77
2021/05/29 10:34:51;;;;;;;;;3.20;3.20;;;;;;;;5002889;28;8883;-75
2021/05/29 10:37:27;;;;;;;;;3.60;3.60;;;;;;;;5004816;28;8859;-78
2021/05/29 10:39:54;;;;;;;;;2.00;2.00;;;;;;;;5004123;28;8901;-79
2021/05/29 10:42:30;;;;;;;;;0.20;0.20;;;;;;;;5004542;28;8894;-78
2021/05/29 10:45:14;;;;;;;;;5.20;2.80;;;;;;;;5004257;28;8918;-72
2021/05/29 10:48:06;;;;;;;;;3.80;3.80;;;;;;;;5003611;28;9612;-76
2021/05/29 10:50:58;;;;;;;;;5.00;5.00;;;;;;;;5003317;28;8882;-77
2021/05/29 10:53:44;;;;;;;;;2.80;2.80;;;;;;;;4994554;28;8905;-78
2021/05/29 10:56:29;;;;;;;;;1.80;1.80;;;;;;;;5003465;28;8894;-77
2021/05/29 10:59:10;;;;;;;;;2.40;2.40;;;;;;;;5002985;28;8905;-77
2021/05/29 11:02:13;;;;;;;;;2.80;2.80;;;;;;;;5005887;28;8889;-77
2021/05/29 11:04:40;;;;;;;;;2.80;2.80;;;;;;;;5001464;28;8897;-76
2021/05/29 11:07:30;;;;;;;;;1.80;1.80;;;;;;;;5004450;28;8875;-81
2021/05/29 11:09:57;;;;;;;;;3.20;3.20;;;;;;;;5004229;28;8890;-80
2021/05/29 11:12:54;;;;;;;;;2.60;2.60;;;;;;;;5005362;28;8908;-78
2021/05/29 11:15:56;;;;;;;;;3.80;3.80;;;;;;;;5008367;28;8857;-78
2021/05/29 11:18:22;;;;;;;;;3.00;3.00;;;;;;;;4986602;28;8903;-79
2021/05/29 11:21:10;;;;;;;;;3.00;3.00;;;;;;;;5003943;28;9005;-77
2021/05/29 11:23:38;;;;;;;;;3.20;3.20;;;;;;;;5004998;28;8873;-79
2021/05/29 11:26:06;;;;;;;;;3.40;2.80;;;;;;;;5005575;28;8882;-86
2021/05/29 11:28:34;;;;;;;;;3.80;3.80;;;;;;;;5012997;28;8855;-80
2021/05/29 11:31:03;;;;;;;;;3.80;3.80;;;;;;;;5003830;28;8787;-84
2021/05/29 11:33:29;;;;;;;;;4.00;4.00;;;;;;;;5004759;28;8905;-88
2021/05/29 11:35:57;;;;;;;;;4.80;3.80;;;;;;;;5004720;28;9009;-88
2021/05/29 11:38:33;;;;;;;;;2.80;2.80;;;;;;;;5013083;28;8914;-87
2021/05/29 11:41:07;;;;;;;;;3.60;3.60;;;;;;;;5010609;28;8843;-88
2021/05/29 11:43:44;;;;;;;;;2.60;2.60;;;;;;;;5005052;28;9025;-89
2021/05/29 11:46:12;;;;;;;;;2.80;2.80;;;;;;;;5004726;28;8875;-86
2021/05/29 11:48:41;;;;;;;;;2.00;2.00;;;;;;;;5005138;28;8878;-88
2021/05/29 11:51:10;;;;;;;;;2.80;2.80;;;;;;;;5005227;28;8952;-83
2021/05/29 11:53:41;;;;;;;;;3.80;3.80;;;;;;;;5005017;28;8879;-88
2021/05/29 11:56:09;;;;;;;;;2.80;2.80;;;;;;;;5005088;28;8908;-86
2021/05/29 11:58:48;;;;;;;;;4.00;4.00;;;;;;;;5004995;28;8986;-88
2021/05/29 12:01:16;;;;;;;;;3.40;3.00;;;;;;;;5010612;28;8841;-89
2021/05/29 12:03:45;;;;;;;;;2.80;2.80;;;;;;;;5006179;28;9023;-89
2021/05/29 12:06:14;;;;;;;;;4.80;4.80;;;;;;;;5004398;28;8909;-88
2021/05/29 12:08:54;;;;;;;;;3.40;3.40;;;;;;;;4988674;28;9004;-88
2021/05/29 12:11:24;;;;;;;;;4.00;4.00;;;;;;;;5005133;28;8863;-86
2021/05/29 12:14:01;;;;;;;;;3.80;3.80;;;;;;;;5004926;28;8862;-89
2021/05/29 12:16:30;;;;;;;;;3.20;3.20;;;;;;;;5001642;28;9004;-84
2021/05/29 12:18:57;;;;;;;;;6.40;4.60;;;;;;;;5004754;28;8855;-88
2021/05/29 12:21:25;;;;;;;;;6.00;6.00;;;;;;;;5005138;28;8879;-88
2021/05/29 12:23:55;;;;;;;;;4.40;4.00;;;;;;;;5003372;28;8866;-84
2021/05/29 12:26:24;;;;;;;;;4.60;2.80;;;;;;;;5004921;28;8882;-84
2021/05/29 12:28:51;;;;;;;;;12.00;12.00;;;;;;;;5009104;28;8858;-88
2021/05/29 12:31:21;;;;;;;;;3.60;3.60;;;;;;;;5003486;28;8811;-87
2021/05/29 12:33:48;;;;;;;;;3.80;3.80;;;;;;;;5005625;28;8850;-87
2021/05/29 12:36:15;;;;;;;;;11.80;10.20;;;;;;;;5003813;28;8885;-87
2021/05/29 12:38:53;;;;;;;;;26.20;26.00;;;;;;;;5004967;28;8908;-88
2021/05/29 12:41:22;;;;;;;;;20.40;19.60;;;;;;;;5004544;28;8912;-83
2021/05/29 12:44:04;;;;;;;;;9.80;8.60;;;;;;;;5004767;28;8867;-88
2021/05/29 12:46:31;;;;;;;;;2.20;2.20;;;;;;;;5004472;28;8982;-86
2021/05/29 12:49:05;;;;;;;;;5.20;3.80;;;;;;;;5006968;28;8878;-89
2021/05/29 12:51:43;;;;;;;;;4.20;4.20;;;;;;;;5005975;28;8895;-83
2021/05/29 12:54:11;;;;;;;;;2.00;2.00;;;;;;;;5005854;28;8886;-86
2021/05/29 12:56:37;;;;;;;;;11.40;10.00;;;;;;;;5004342;28;8878;-86
2021/05/29 12:59:07;;;;;;;;;2.80;2.80;;;;;;;;5005753;28;8875;-84
2021/05/29 13:01:51;;;;;;;;;4.40;3.00;;;;;;;;5005953;28;8838;-88
2021/05/29 13:07:32;;;;;;;;;3.00;3.00;;;;;;;;4921755;29;8877;-87
2021/05/29 13:10:04;;;;;;;;;1.40;1.40;;;;;;;;4912421;29;8947;-88
2021/05/29 13:12:31;;;;;;;;;2.80;2.80;;;;;;;;4972708;28;8889;-87
2021/05/29 13:14:59;;;;;;;;;3.40;3.00;;;;;;;;5006780;28;8867;-88
2021/05/29 13:17:29;;;;;;;;;2.60;2.60;;;;;;;;5008347;28;8894;-87
2021/05/29 13:19:59;;;;;;;;;2.20;2.20;;;;;;;;5005860;28;8879;-88
2021/05/29 13:22:27;;;;;;;;;2.40;2.40;;;;;;;;4991236;28;8968;-89
2021/05/29 13:24:59;;;;;;;;;1.60;1.60;;;;;;;;5007652;28;9671;-88
2021/05/29 13:27:43;;;;;;;;;1.60;1.60;;;;;;;;5009245;28;8893;-88
2021/05/29 13:30:14;;;;;;;;;2.60;2.60;;;;;;;;4994816;28;8930;-87
2021/05/29 13:32:42;;;;;;;;;1.00;1.00;;;;;;;;5005877;28;8910;-81
2021/05/29 13:35:10;;;;;;;;;2.20;2.20;;;;;;;;4990994;28;8987;-88
2021/05/29 13:37:37;;;;;;;;;1.40;1.40;;;;;;;;5007040;28;8973;-87
2021/05/29 13:40:07;;;;;;;;;1.80;1.80;;;;;;;;5007555;28;8912;-88
2021/05/29 13:42:34;;;;;;;;;2.00;2.00;;;;;;;;5007701;28;8863;-87
2021/05/29 13:45:01;;;;;;;;;2.20;2.20;;;;;;;;5006783;28;8886;-88
2021/05/29 13:47:29;;;;;;;;;1.00;1.00;;;;;;;;5008048;28;8968;-88
2021/05/29 13:49:56;;;;;;;;;2.00;0.00;;;;;;;;5006705;28;9736;-88
2021/05/29 13:52:23;;;;;;;;;1.80;1.00;;;;;;;;5007754;28;8863;-87
2021/05/29 13:54:50;;;;;;;;;0.40;0.40;;;;;;;;4989698;28;8863;-88
2021/05/29 13:57:18;;;;;;;;;1.40;1.40;;;;;;;;5007055;28;8866;-88
2021/05/29 13:59:46;;;;;;;;;2.00;2.00;;;;;;;;5007069;28;8970;-87
2021/05/29 14:02:13;;;;;;;;;2.80;2.00;;;;;;;;5005346;28;8807;-82
2021/05/29 14:04:41;;;;;;;;;2.00;2.00;;;;;;;;5007976;28;8874;-87
2021/05/29 14:07:09;;;;;;;;;2.80;2.80;;;;;;;;5006298;28;8859;-87
2021/05/29 14:09:35;;;;;;;;;2.60;2.60;;;;;;;;5006874;28;8956;-88
2021/05/29 14:12:03;;;;;;;;;1.00;1.00;;;;;;;;5006584;28;8916;-85
2021/05/29 14:14:30;;;;;;;;;1.80;1.80;;;;;;;;4989487;28;9035;-84
2021/05/29 14:16:57;;;;;;;;;1.00;1.00;;;;;;;;5006804;28;8866;-89
2021/05/29 14:19:24;;;;;;;;;0.80;0.80;;;;;;;;5006463;28;8906;-89
2021/05/29 14:21:51;;;;;;;;;2.20;2.20;;;;;;;;5007691;28;8874;-87
2021/05/29 14:24:18;;;;;;;;;0.60;0.60;;;;;;;;5005960;28;8870;-87
2021/05/29 14:26:45;;;;;;;;;1.00;1.00;;;;;;;;5007038;28;8878;-87
2021/05/29 14:29:12;;;;;;;;;2.60;2.60;;;;;;;;5010130;28;8862;-89
2021/05/29 14:31:39;;;;;;;;;3.00;3.00;;;;;;;;5006180;28;8912;-88
2021/05/29 14:34:08;;;;;;;;;2.00;2.00;;;;;;;;4989395;28;8855;-86
2021/05/29 14:36:35;;;;;;;;;1.80;1.80;;;;;;;;5006427;28;8879;-89
2021/05/29 14:39:04;;;;;;;;;1.00;1.00;;;;;;;;5006787;28;8854;-89
2021/05/29 14:41:32;;;;;;;;;2.20;2.20;;;;;;;;5006044;28;8870;-88
2021/05/29 14:43:59;;;;;;;;;1.00;1.00;;;;;;;;5006417;28;8981;-85
2021/05/29 14:46:26;;;;;;;;;1.80;1.00;;;;;;;;5005424;28;8878;-86
2021/05/29 14:48:52;;;;;;;;;3.20;3.00;;;;;;;;5006644;28;8878;-89
2021/05/29 14:51:22;;;;;;;;;2.40;2.40;;;;;;;;5005650;28;8871;-84
2021/05/29 14:53:51;;;;;;;;;2.00;2.00;;;;;;;;5004783;28;8875;-82
2021/05/29 14:56:20;;;;;;;;;1.60;1.60;;;;;;;;5005238;28;8871;-83
2021/05/29 14:58:47;;;;;;;;;1.40;1.00;;;;;;;;5016629;28;9052;-89
2021/05/29 15:01:14;;;;;;;;;2.40;1.40;;;;;;;;5007154;28;8823;-84